createdAt,value
2022-08-29T00:00:17.680Z,99242.83
2022-08-29T00:01:17.027Z,99237.91
2022-08-29T00:02:21.466Z,99243.24
2022-08-29T00:03:26.056Z,99237.27
2022-08-29T00:04:29.172Z,99240.98
2022-08-29T00:05:33.948Z,99250.19
2022-08-29T00:06:38.747Z,99242.59
2022-08-29T00:07:41.339Z,99243.61
2022-08-29T00:08:44.005Z,99251.83
2022-08-29T00:09:46.676Z,99248.34
2022-08-29T00:10:49.754Z,99253.86
2022-08-29T00:11:52.422Z,99249.76
2022-08-29T00:12:54.984Z,99250.16
2022-08-29T00:13:59.499Z,99249.53
2022-08-29T00:15:01.992Z,99256.92
2022-08-29T00:16:05.069Z,99250.95
2022-08-29T00:17:07.911Z,99257.70
2022-08-29T00:18:10.532Z,99256.88
2022-08-29T00:19:13.210Z,99257.70
2022-08-29T00:20:17.455Z,99257.52
2022-08-29T00:21:20.160Z,99259.99
2022-08-29T00:22:22.797Z,99257.75
2022-08-29T00:23:25.770Z,99260.01
2022-08-29T00:24:28.296Z,99255.09
2022-08-29T00:25:31.007Z,99261.68
2022-08-29T00:26:33.998Z,99257.37
2022-08-29T00:27:36.761Z,99262.11
2022-08-29T00:28:39.424Z,99260.91
2022-08-29T00:29:42.049Z,99257.19
2022-08-29T00:30:45.068Z,99256.02
2022-08-29T00:31:47.777Z,99255.61
2022-08-29T00:32:50.439Z,99255.80
2022-08-29T00:33:53.279Z,99255.42
2022-08-29T00:34:55.850Z,99251.70
2022-08-29T00:35:58.474Z,99249.04
2022-08-29T00:37:02.316Z,99240.84
2022-08-29T00:38:06.214Z,99235.69
2022-08-29T00:39:09.348Z,99243.70
2022-08-29T00:40:13.137Z,99245.99
2022-08-29T00:41:16.477Z,99246.78
2022-08-29T00:42:19.140Z,99244.95
2022-08-29T00:43:21.707Z,99243.92
2022-08-29T00:44:24.233Z,99243.73
2022-08-29T00:45:27.048Z,99246.41
2022-08-29T00:46:31.253Z,99242.08
2022-08-29T00:47:33.922Z,99251.11
2022-08-29T00:48:36.549Z,99247.42
2022-08-29T00:49:39.178Z,99249.91
2022-08-29T00:50:42.237Z,99247.02
2022-08-29T00:51:44.761Z,99245.17
2022-08-29T00:52:47.333Z,99245.77
2022-08-29T00:53:50.817Z,99251.11
2022-08-29T00:54:53.424Z,99243.73
2022-08-29T00:55:56.036Z,99244.56
2022-08-29T00:56:58.865Z,99251.56
2022-08-29T00:58:01.440Z,99250.31
2022-08-29T00:59:04.100Z,99248.48
2022-08-29T01:00:06.872Z,99250.92
2022-08-29T01:01:09.911Z,99250.09
2022-08-29T01:02:13.475Z,99253.21
2022-08-29T01:03:16.422Z,99254.01
2022-08-29T01:04:24.164Z,99254.83
2022-08-29T01:05:23.700Z,99255.88
2022-08-29T01:06:26.684Z,99250.73
2022-08-29T01:07:29.244Z,99251.97
2022-08-29T01:08:31.915Z,99250.31
2022-08-29T01:09:34.479Z,99255.02
2022-08-29T01:10:37.253Z,99245.77
2022-08-29T01:11:39.819Z,99256.27
2022-08-29T01:12:42.488Z,99257.88
2022-08-29T01:13:45.057Z,99253.14
2022-08-29T01:14:47.928Z,99265.46
2022-08-29T01:15:50.701Z,99257.19
2022-08-29T01:16:53.623Z,99259.25
2022-08-29T01:17:56.244Z,99262.11
2022-08-29T01:18:58.812Z,99271.96
2022-08-29T01:20:01.417Z,99267.45
2022-08-29T01:21:04.048Z,99266.84
2022-08-29T01:22:07.082Z,99264.36
2022-08-29T01:23:09.694Z,99265.38
2022-08-29T01:24:12.218Z,99260.86
2022-08-29T01:25:14.827Z,99268.05
2022-08-29T01:26:18.185Z,99264.58
2022-08-29T01:27:20.785Z,99275.25
2022-08-29T01:28:23.351Z,99274.42
2022-08-29T01:29:25.912Z,99272.77
2022-08-29T01:30:30.529Z,99274.01
2022-08-29T01:31:37.449Z,99269.05
2022-08-29T01:32:37.563Z,99274.78
2022-08-29T01:33:40.175Z,99280.53
2022-08-29T01:34:42.771Z,99271.09
2022-08-29T01:35:45.311Z,99274.77
2022-08-29T01:36:48.282Z,99272.29
2022-08-29T01:37:50.955Z,99276.00
2022-08-29T01:38:53.623Z,99277.63
2022-08-29T01:39:56.233Z,99269.84
2022-08-29T01:40:59.578Z,99273.70
2022-08-29T01:42:02.246Z,99270.21
2022-08-29T01:43:04.811Z,99279.26
2022-08-29T01:44:07.585Z,99282.94
2022-08-29T01:45:10.288Z,99276.17
2022-08-29T01:46:14.775Z,99274.70
2022-08-29T01:47:17.432Z,99276.76
2022-08-29T01:48:21.331Z,99264.65
2022-08-29T01:49:23.846Z,99270.17
2022-08-29T01:50:27.595Z,99272.19
2022-08-29T01:51:30.160Z,99274.25
2022-08-29T01:52:32.930Z,99281.64
2022-08-29T01:53:35.502Z,99276.49
2022-08-29T01:54:38.166Z,99280.39
2022-08-29T01:55:40.938Z,99280.39
2022-08-29T01:56:43.935Z,99271.74
2022-08-29T01:57:46.591Z,99278.73
2022-08-29T01:58:49.254Z,99279.56
2022-08-29T01:59:51.823Z,99276.89
2022-08-29T02:00:54.946Z,99284.89
2022-08-29T02:01:57.950Z,99273.40
2022-08-29T02:03:02.291Z,99283.23
2022-08-29T02:04:04.856Z,99269.30
2022-08-29T02:05:07.422Z,99272.14
2022-08-29T02:06:11.589Z,99266.38
2022-08-29T02:07:14.218Z,99265.12
2022-08-29T02:08:18.707Z,99270.03
2022-08-29T02:09:21.186Z,99269.39
2022-08-29T02:10:25.074Z,99268.38
2022-08-29T02:11:27.694Z,99278.86
2022-08-29T02:12:30.307Z,99276.19
2022-08-29T02:13:32.830Z,99279.05
2022-08-29T02:14:35.339Z,99274.36
2022-08-29T02:15:38.104Z,99276.80
2022-08-29T02:16:41.088Z,99277.45
2022-08-29T02:17:43.750Z,99274.56
2022-08-29T02:18:46.376Z,99277.05
2022-08-29T02:19:48.988Z,99277.87
2022-08-29T02:20:52.030Z,99275.20
2022-08-29T02:21:54.739Z,99271.50
2022-08-29T02:22:57.714Z,99272.33
2022-08-29T02:24:11.284Z,99267.21
2022-08-29T02:25:04.688Z,99266.38
2022-08-29T02:26:07.724Z,99273.73
2022-08-29T02:27:10.336Z,99272.12
2022-08-29T02:28:12.900Z,99277.45
2022-08-29T02:29:15.467Z,99286.27
2022-08-29T02:30:19.424Z,99285.45
2022-08-29T02:31:22.156Z,99281.95
2022-08-29T02:32:25.112Z,99280.30
2022-08-29T02:33:29.321Z,99282.35
2022-08-29T02:34:33.834Z,99283.55
2022-08-29T02:35:42.575Z,99290.93
2022-08-29T02:36:44.032Z,99289.27
2022-08-29T02:37:46.763Z,99284.13
2022-08-29T02:38:49.321Z,99294.61
2022-08-29T02:39:51.991Z,99294.61
2022-08-29T02:40:55.099Z,99289.45
2022-08-29T02:41:57.619Z,99293.16
2022-08-29T02:43:00.714Z,99290.87
2022-08-29T02:44:03.243Z,99288.20
2022-08-29T02:45:05.871Z,99291.08
2022-08-29T02:46:09.644Z,99293.75
2022-08-29T02:47:12.214Z,99294.75
2022-08-29T02:48:14.931Z,99298.64
2022-08-29T02:49:17.654Z,99297.81
2022-08-29T02:50:21.556Z,99295.16
2022-08-29T02:51:24.219Z,99298.64
2022-08-29T02:52:26.853Z,99305.81
2022-08-29T02:53:30.480Z,99300.30
2022-08-29T02:54:33.052Z,99302.97
2022-08-29T02:55:35.776Z,99310.75
2022-08-29T02:56:38.835Z,99307.08
2022-08-29T02:57:41.363Z,99309.73
2022-08-29T02:58:44.033Z,99304.41
2022-08-29T02:59:46.903Z,99300.30
2022-08-29T03:00:49.625Z,99304.80
2022-08-29T03:01:52.502Z,99307.47
2022-08-29T03:02:55.424Z,99306.42
2022-08-29T03:03:58.095Z,99309.73
2022-08-29T03:05:00.661Z,99311.83
2022-08-29T03:06:03.432Z,99316.94
2022-08-29T03:07:05.999Z,99318.60
2022-08-29T03:08:08.975Z,99325.38
2022-08-29T03:09:11.476Z,99323.53
2022-08-29T03:10:15.039Z,99322.52
2022-08-29T03:11:17.703Z,99321.30
2022-08-29T03:12:20.267Z,99321.95
2022-08-29T03:13:22.935Z,99320.94
2022-08-29T03:14:25.605Z,99316.83
2022-08-29T03:15:28.235Z,99319.95
2022-08-29T03:16:32.276Z,99323.84
2022-08-29T03:17:34.908Z,99318.98
2022-08-29T03:18:37.516Z,99319.77
2022-08-29T03:19:40.181Z,99321.03
2022-08-29T03:20:43.059Z,99316.95
2022-08-29T03:21:45.723Z,99319.45
2022-08-29T03:22:48.601Z,99317.48
2022-08-29T03:23:51.274Z,99316.50
2022-08-29T03:24:53.896Z,99320.28
2022-08-29T03:25:56.503Z,99321.76
2022-08-29T03:26:59.174Z,99319.32
2022-08-29T03:28:01.740Z,99323.42
2022-08-29T03:29:04.307Z,99329.79
2022-08-29T03:30:07.283Z,99327.98
2022-08-29T03:31:10.039Z,99335.18
2022-08-29T03:32:12.655Z,99338.68
2022-08-29T03:33:15.191Z,99340.75
2022-08-29T03:34:17.864Z,99344.06
2022-08-29T03:35:20.551Z,99349.81
2022-08-29T03:36:25.041Z,99342.62
2022-08-29T03:37:27.603Z,99349.84
2022-08-29T03:38:30.503Z,99347.17
2022-08-29T03:39:33.068Z,99343.67
2022-08-29T03:40:36.806Z,99343.03
2022-08-29T03:41:40.027Z,99343.45
2022-08-29T03:42:42.695Z,99339.16
2022-08-29T03:43:45.361Z,99339.16
2022-08-29T03:44:48.036Z,99346.95
2022-08-29T03:45:50.766Z,99352.10
2022-08-29T03:46:53.732Z,99356.62
2022-08-29T03:47:56.651Z,99353.54
2022-08-29T03:48:59.219Z,99351.89
2022-08-29T03:50:01.786Z,99350.64
2022-08-29T03:51:04.351Z,99354.36
2022-08-29T03:52:07.028Z,99361.14
2022-08-29T03:53:09.692Z,99361.14
2022-08-29T03:54:12.361Z,99356.40
2022-08-29T03:55:14.891Z,99362.98
2022-08-29T03:56:18.752Z,99350.06
2022-08-29T03:57:21.905Z,99360.14
2022-08-29T03:58:24.471Z,99350.27
2022-08-29T03:59:27.039Z,99360.58
2022-08-29T04:00:30.220Z,99359.14
2022-08-29T04:01:32.837Z,99355.82
2022-08-29T04:02:35.620Z,99360.78
2022-08-29T04:03:38.843Z,99356.86
2022-08-29T04:04:41.470Z,99363.03
2022-08-29T04:05:44.502Z,99362.80
2022-08-29T04:06:48.080Z,99360.77
2022-08-29T04:07:50.606Z,99365.91
2022-08-29T04:08:53.215Z,99361.56
2022-08-29T04:09:55.739Z,99352.70
2022-08-29T04:10:58.756Z,99362.39
2022-08-29T04:12:01.279Z,99353.73
2022-08-29T04:13:04.095Z,99361.58
2022-08-29T04:14:06.722Z,99365.05
2022-08-29T04:15:09.330Z,99364.84
2022-08-29T04:16:12.466Z,99369.53
2022-08-29T04:17:15.388Z,99372.22
2022-08-29T04:18:21.641Z,99375.06
2022-08-29T04:19:22.483Z,99372.19
2022-08-29T04:20:25.958Z,99377.12
2022-08-29T04:21:29.137Z,99378.73
2022-08-29T04:22:31.715Z,99376.66
2022-08-29T04:23:34.388Z,99376.85
2022-08-29T04:24:36.939Z,99384.66
2022-08-29T04:25:39.505Z,99385.05
2022-08-29T04:26:42.480Z,99373.51
2022-08-29T04:27:45.050Z,99377.17
2022-08-29T04:28:47.613Z,99381.94
2022-08-29T04:29:50.145Z,99381.07
2022-08-29T04:30:53.295Z,99390.52
2022-08-29T04:31:56.144Z,99386.38
2022-08-29T04:32:58.839Z,99394.38
2022-08-29T04:34:01.479Z,99399.48
2022-08-29T04:35:04.448Z,99386.27
2022-08-29T04:36:09.205Z,99376.97
2022-08-29T04:37:11.852Z,99382.55
2022-08-29T04:38:14.614Z,99379.81
2022-08-29T04:39:17.391Z,99378.13
2022-08-29T04:40:20.912Z,99376.05
2022-08-29T04:41:24.124Z,99369.59
2022-08-29T04:42:26.983Z,99366.02
2022-08-29T04:43:30.002Z,99365.38
2022-08-29T04:44:32.792Z,99373.39
2022-08-29T04:45:35.404Z,99371.85
2022-08-29T04:46:38.458Z,99369.92
2022-08-29T04:47:41.092Z,99370.69
2022-08-29T04:48:43.784Z,99373.30
2022-08-29T04:49:46.329Z,99382.17
2022-08-29T04:50:49.422Z,99376.80
2022-08-29T04:51:52.079Z,99373.09
2022-08-29T04:52:54.635Z,99377.80
2022-08-29T04:53:57.206Z,99379.17
2022-08-29T04:54:59.772Z,99373.06
2022-08-29T04:56:02.748Z,99379.20
2022-08-29T04:57:05.318Z,99377.27
2022-08-29T04:58:07.910Z,99384.42
2022-08-29T04:59:12.287Z,99378.59
2022-08-29T05:00:15.576Z,99376.73
2022-08-29T05:01:18.298Z,99383.83
2022-08-29T05:02:21.268Z,99381.42
2022-08-29T05:03:23.889Z,99385.45
2022-08-29T05:04:26.518Z,99373.78
2022-08-29T05:05:29.170Z,99391.50
2022-08-29T05:06:32.379Z,99387.67
2022-08-29T05:07:35.063Z,99390.41
2022-08-29T05:08:39.650Z,99395.11
2022-08-29T05:09:42.217Z,99392.31
2022-08-29T05:10:45.031Z,99390.59
2022-08-29T05:11:47.707Z,99393.76
2022-08-29T05:12:50.269Z,99396.12
2022-08-29T05:13:52.868Z,99401.78
2022-08-29T05:14:55.806Z,99400.27
2022-08-29T05:15:58.458Z,99395.84
2022-08-29T05:17:01.970Z,99394.34
2022-08-29T05:18:04.646Z,99386.97
2022-08-29T05:19:08.345Z,99388.63
2022-08-29T05:20:13.410Z,99397.66
2022-08-29T05:21:16.028Z,99389.67
2022-08-29T05:22:18.549Z,99388.16
2022-08-29T05:23:21.131Z,99386.29
2022-08-29T05:24:23.728Z,99394.50
2022-08-29T05:25:28.093Z,99396.46
2022-08-29T05:26:32.752Z,99392.50
2022-08-29T05:27:35.316Z,99391.55
2022-08-29T05:28:37.840Z,99399.28
2022-08-29T05:29:40.410Z,99398.94
2022-08-29T05:30:43.436Z,99399.05
2022-08-29T05:31:46.360Z,99397.28
2022-08-29T05:32:48.973Z,99401.77
2022-08-29T05:33:51.462Z,99401.75
2022-08-29T05:34:54.107Z,99406.18
2022-08-29T05:35:56.803Z,99406.64
2022-08-29T05:37:00.058Z,99408.71
2022-08-29T05:38:07.137Z,99416.31
2022-08-29T05:39:07.032Z,99409.39
2022-08-29T05:40:11.928Z,99412.20
2022-08-29T05:41:14.635Z,99411.71
2022-08-29T05:42:17.400Z,99413.13
2022-08-29T05:43:20.375Z,99414.26
2022-08-29T05:44:22.966Z,99403.35
2022-08-29T05:45:25.506Z,99400.20
2022-08-29T05:46:29.029Z,99398.17
2022-08-29T05:47:31.667Z,99403.52
2022-08-29T05:48:34.340Z,99403.12
2022-08-29T05:49:36.902Z,99412.11
2022-08-29T05:50:41.004Z,99405.99
2022-08-29T05:51:43.571Z,99412.80
2022-08-29T05:52:46.135Z,99420.02
2022-08-29T05:53:48.702Z,99405.03
2022-08-29T05:54:51.270Z,99410.43
2022-08-29T05:55:53.838Z,99403.98
2022-08-29T05:56:56.611Z,99404.30
2022-08-29T05:57:59.244Z,99410.03
2022-08-29T05:59:01.857Z,99406.13
2022-08-29T06:00:04.925Z,99403.03
2022-08-29T06:01:07.900Z,99402.34
2022-08-29T06:02:10.666Z,99409.57
2022-08-29T06:03:14.442Z,99404.72
2022-08-29T06:04:17.137Z,99403.08
2022-08-29T06:05:19.764Z,99409.80
2022-08-29T06:06:23.049Z,99411.77
2022-08-29T06:07:25.770Z,99411.27
2022-08-29T06:08:28.726Z,99404.39
2022-08-29T06:09:31.310Z,99412.50
2022-08-29T06:10:34.997Z,99407.41
2022-08-29T06:11:37.521Z,99403.88
2022-08-29T06:12:40.131Z,99409.52
2022-08-29T06:13:42.656Z,99405.53
2022-08-29T06:14:50.090Z,99406.98
2022-08-29T06:15:49.864Z,99408.67
2022-08-29T06:16:52.651Z,99401.23
2022-08-29T06:17:56.447Z,99402.17
2022-08-29T06:18:59.015Z,99396.91
2022-08-29T06:20:01.580Z,99396.82
2022-08-29T06:21:04.775Z,99408.70
2022-08-29T06:22:09.762Z,99402.91
2022-08-29T06:23:11.946Z,99408.69
2022-08-29T06:24:14.514Z,99401.77
2022-08-29T06:25:38.035Z,99412.73
2022-08-29T06:26:21.652Z,99409.13
2022-08-29T06:27:24.466Z,99406.30
2022-08-29T06:28:27.196Z,99408.13
2022-08-29T06:29:29.835Z,99412.33
2022-08-29T06:30:32.743Z,99412.72
2022-08-29T06:31:35.367Z,99409.82
2022-08-29T06:32:38.024Z,99413.69
2022-08-29T06:33:40.891Z,99416.72
2022-08-29T06:34:43.417Z,99411.32
2022-08-29T06:35:46.026Z,99420.03
2022-08-29T06:36:49.107Z,99414.12
2022-08-29T06:37:51.657Z,99417.11
2022-08-29T06:38:54.158Z,99413.53
2022-08-29T06:39:57.163Z,99418.95
2022-08-29T06:41:00.398Z,99419.27
2022-08-29T06:42:03.059Z,99412.49
2022-08-29T06:43:06.036Z,99411.12
2022-08-29T06:44:08.719Z,99408.12
2022-08-29T06:45:11.230Z,99412.73
2022-08-29T06:46:15.614Z,99409.46
2022-08-29T06:47:18.556Z,99410.80
2022-08-29T06:48:21.123Z,99405.84
2022-08-29T06:49:23.598Z,99406.08
2022-08-29T06:50:26.576Z,99403.05
2022-08-29T06:51:29.132Z,99408.48
2022-08-29T06:52:31.698Z,99403.62
2022-08-29T06:53:37.449Z,99400.84
2022-08-29T06:54:39.187Z,99403.22
2022-08-29T06:55:41.760Z,99403.99
2022-08-29T06:56:44.729Z,99401.54
2022-08-29T06:57:47.295Z,99404.88
2022-08-29T06:58:50.043Z,99394.00
2022-08-29T06:59:53.352Z,99405.73
2022-08-29T07:00:56.323Z,99410.95
2022-08-29T07:01:59.281Z,99400.39
2022-08-29T07:03:02.289Z,99410.20
2022-08-29T07:04:04.983Z,99403.72
2022-08-29T07:05:08.029Z,99399.66
2022-08-29T07:06:11.541Z,99406.73
2022-08-29T07:07:14.189Z,99413.28
2022-08-29T07:08:16.713Z,99404.61
2022-08-29T07:09:19.279Z,99410.59
2022-08-29T07:10:23.735Z,99417.92
2022-08-29T07:11:26.549Z,99409.23
2022-08-29T07:12:29.043Z,99409.51
2022-08-29T07:13:33.589Z,99414.92
2022-08-29T07:14:36.412Z,99409.22
2022-08-29T07:15:39.691Z,99408.66
2022-08-29T07:16:42.741Z,99410.57
2022-08-29T07:17:45.393Z,99417.62
2022-08-29T07:18:47.914Z,99417.32
2022-08-29T07:19:50.523Z,99405.84
2022-08-29T07:20:53.500Z,99406.09
2022-08-29T07:21:58.414Z,99413.98
2022-08-29T07:23:00.988Z,99411.23
2022-08-29T07:24:03.655Z,99408.69
2022-08-29T07:25:06.182Z,99412.73
2022-08-29T07:26:09.308Z,99415.95
2022-08-29T07:27:11.980Z,99412.75
2022-08-29T07:28:14.774Z,99418.85
2022-08-29T07:29:18.250Z,99412.44
2022-08-29T07:31:34.201Z,99416.45
2022-08-29T07:32:36.755Z,99417.23
2022-08-29T07:33:39.256Z,99419.33
2022-08-29T07:34:41.823Z,99419.19
2022-08-29T07:35:44.405Z,99413.18
2022-08-29T07:36:48.300Z,99411.35
2022-08-29T07:37:50.959Z,99424.41
2022-08-29T07:38:53.856Z,99423.59
2022-08-29T07:39:56.411Z,99422.70
2022-08-29T07:40:59.584Z,99415.17
2022-08-29T07:42:02.865Z,99418.88
2022-08-29T07:43:05.483Z,99420.34
2022-08-29T07:44:08.103Z,99412.52
2022-08-29T07:45:10.964Z,99414.08
2022-08-29T07:46:15.157Z,99422.28
2022-08-29T07:47:18.047Z,99417.03
2022-08-29T07:48:23.055Z,99407.66
2022-08-29T07:49:32.461Z,99422.11
2022-08-29T07:50:30.767Z,99417.25
2022-08-29T07:51:33.433Z,99417.56
2022-08-29T07:52:36.101Z,99425.83
2022-08-29T07:53:38.683Z,99415.92
2022-08-29T07:54:41.343Z,99418.44
2022-08-29T07:55:43.868Z,99423.69
2022-08-29T07:56:46.679Z,99425.38
2022-08-29T07:57:49.258Z,99434.33
2022-08-29T07:58:52.020Z,99429.63
2022-08-29T07:59:54.696Z,99437.51
2022-08-29T08:00:57.667Z,99433.78
2022-08-29T08:02:00.732Z,99442.35
2022-08-29T08:03:05.424Z,99429.96
2022-08-29T08:04:08.083Z,99434.67
2022-08-29T08:05:10.692Z,99426.09
2022-08-29T08:06:15.002Z,99430.79
2022-08-29T08:07:18.487Z,99430.26
2022-08-29T08:08:21.088Z,99431.34
2022-08-29T08:09:23.750Z,99437.62
2022-08-29T08:10:26.560Z,99433.45
2022-08-29T08:11:29.164Z,99429.59
2022-08-29T08:12:31.667Z,99432.27
2022-08-29T08:13:34.463Z,99430.03
2022-08-29T08:14:37.336Z,99426.71
2022-08-29T08:15:39.952Z,99429.91
2022-08-29T08:16:44.216Z,99433.36
2022-08-29T08:17:47.394Z,99432.48
2022-08-29T08:18:50.011Z,99431.55
2022-08-29T08:19:52.674Z,99428.98
2022-08-29T08:20:55.750Z,99440.67
2022-08-29T08:21:58.277Z,99426.23
2022-08-29T08:23:00.890Z,99431.58
2022-08-29T08:24:03.556Z,99428.19
2022-08-29T08:25:06.223Z,99430.28
2022-08-29T08:26:09.368Z,99428.56
2022-08-29T08:27:11.971Z,99424.97
2022-08-29T08:28:14.690Z,99429.80
2022-08-29T08:29:17.823Z,99429.52
2022-08-29T08:30:21.276Z,99432.75
2022-08-29T08:31:25.976Z,99434.44
2022-08-29T08:32:32.221Z,99442.34
2022-08-29T08:33:34.891Z,99438.80
2022-08-29T08:34:37.827Z,99446.94
2022-08-29T08:35:41.840Z,99441.34
2022-08-29T08:36:45.317Z,99442.02
2022-08-29T08:37:47.987Z,99442.44
2022-08-29T08:38:50.549Z,99441.50
2022-08-29T08:39:53.051Z,99444.80
2022-08-29T08:40:56.200Z,99448.08
2022-08-29T08:41:58.884Z,99450.19
2022-08-29T08:43:01.599Z,99450.94
2022-08-29T08:44:04.205Z,99453.59
2022-08-29T08:45:06.829Z,99455.81
2022-08-29T08:46:10.593Z,99454.45
2022-08-29T08:47:13.237Z,99452.30
2022-08-29T08:48:15.860Z,99441.70
2022-08-29T08:49:18.429Z,99450.39
2022-08-29T08:50:21.856Z,99452.77
2022-08-29T08:51:24.525Z,99445.60
2022-08-29T08:52:27.091Z,99454.02
2022-08-29T08:53:29.617Z,99443.58
2022-08-29T08:54:32.224Z,99434.44
2022-08-29T08:55:34.796Z,99437.88
2022-08-29T08:56:37.524Z,99442.84
2022-08-29T08:57:40.237Z,99446.03
2022-08-29T08:58:43.240Z,99443.46
2022-08-29T08:59:45.883Z,99445.11
2022-08-29T09:00:48.900Z,99442.88
2022-08-29T09:01:52.161Z,99449.59
2022-08-29T09:02:54.879Z,99448.95
2022-08-29T09:03:57.790Z,99450.47
2022-08-29T09:05:00.455Z,99447.67
2022-08-29T09:06:03.128Z,99446.57
2022-08-29T09:07:05.691Z,99448.61
2022-08-29T09:08:08.264Z,99446.08
2022-08-29T09:09:12.052Z,99443.83
2022-08-29T09:10:16.160Z,99446.05
2022-08-29T09:11:18.931Z,99449.80
2022-08-29T09:12:21.496Z,99448.09
2022-08-29T09:13:23.988Z,99442.00
2022-08-29T09:14:26.494Z,99454.88
2022-08-29T09:15:32.831Z,99445.27
2022-08-29T09:16:33.958Z,99455.59
2022-08-29T09:17:36.804Z,99451.91
2022-08-29T09:18:39.480Z,99450.98
2022-08-29T09:19:42.119Z,99455.52
2022-08-29T09:20:45.403Z,99460.58
2022-08-29T09:21:48.281Z,99461.22
2022-08-29T09:22:50.847Z,99456.33
2022-08-29T09:23:53.419Z,99455.41
2022-08-29T09:24:56.084Z,99452.84
2022-08-29T09:25:58.650Z,99463.30
2022-08-29T09:27:01.748Z,99455.81
2022-08-29T09:28:04.359Z,99462.39
2022-08-29T09:29:06.965Z,99461.30
2022-08-29T09:30:10.353Z,99461.30
2022-08-29T09:31:12.925Z,99457.17
2022-08-29T09:32:18.948Z,99457.41
2022-08-29T09:33:20.100Z,99455.73
2022-08-29T09:34:23.137Z,99462.16
2022-08-29T09:35:25.823Z,99459.12
2022-08-29T09:36:29.028Z,99454.13
2022-08-29T09:37:31.705Z,99460.28
2022-08-29T09:38:34.326Z,99456.63
2022-08-29T09:39:36.935Z,99462.83
2022-08-29T09:40:39.858Z,99464.19
2022-08-29T09:41:43.051Z,99460.50
2022-08-29T09:42:45.764Z,99459.09
2022-08-29T09:43:48.287Z,99457.98
2022-08-29T09:44:52.736Z,99456.80
2022-08-29T09:45:55.381Z,99458.88
2022-08-29T09:46:58.570Z,99459.32
2022-08-29T09:48:01.563Z,99457.28
2022-08-29T09:49:04.235Z,99452.55
2022-08-29T09:50:07.212Z,99462.81
2022-08-29T09:51:09.844Z,99462.18
2022-08-29T09:52:12.447Z,99461.52
2022-08-29T09:53:25.103Z,99467.48
2022-08-29T09:54:19.627Z,99453.43
2022-08-29T09:55:22.295Z,99461.13
2022-08-29T09:56:26.603Z,99457.75
2022-08-29T09:57:29.274Z,99456.05
2022-08-29T09:58:36.208Z,99465.28
2022-08-29T09:59:36.725Z,99465.71
2022-08-29T10:00:41.425Z,99452.64
2022-08-29T10:01:44.288Z,99458.18
2022-08-29T10:02:47.322Z,99459.42
2022-08-29T10:03:50.819Z,99454.39
2022-08-29T10:04:53.816Z,99453.58
2022-08-29T10:05:56.327Z,99453.19
2022-08-29T10:06:59.133Z,99460.07
2022-08-29T10:08:01.708Z,99451.66
2022-08-29T10:09:04.374Z,99454.89
2022-08-29T10:10:07.514Z,99458.37
2022-08-29T10:11:10.084Z,99460.14
2022-08-29T10:12:12.647Z,99454.13
2022-08-29T10:13:15.473Z,99451.97
2022-08-29T10:14:18.228Z,99454.84
2022-08-29T10:15:39.908Z,99447.84
2022-08-29T10:16:25.392Z,99451.23
2022-08-29T10:17:28.293Z,99448.24
2022-08-29T10:18:30.951Z,99444.22
2022-08-29T10:19:34.546Z,99447.62
2022-08-29T10:20:37.416Z,99448.52
2022-08-29T10:21:40.198Z,99448.45
2022-08-29T10:22:43.205Z,99443.27
2022-08-29T10:23:46.038Z,99445.51
2022-08-29T10:24:48.606Z,99449.38
2022-08-29T10:25:51.208Z,99445.40
2022-08-29T10:26:54.004Z,99437.48
2022-08-29T10:27:56.490Z,99441.17
2022-08-29T10:28:59.078Z,99447.39
2022-08-29T10:30:01.854Z,99453.36
2022-08-29T10:31:04.625Z,99450.55
2022-08-29T10:32:07.245Z,99451.40
2022-08-29T10:33:10.172Z,99452.67
2022-08-29T10:34:12.793Z,99453.62
2022-08-29T10:35:15.454Z,99453.91
2022-08-29T10:36:19.403Z,99450.28
2022-08-29T10:37:21.927Z,99451.72
2022-08-29T10:38:24.534Z,99460.87
2022-08-29T10:39:27.064Z,99463.69
2022-08-29T10:40:32.089Z,99448.04
2022-08-29T10:41:35.167Z,99461.22
2022-08-29T10:42:38.079Z,99458.77
2022-08-29T10:43:40.651Z,99451.91
2022-08-29T10:44:43.214Z,99460.42
2022-08-29T10:45:45.825Z,99457.92
2022-08-29T10:46:48.509Z,99455.13
2022-08-29T10:47:51.118Z,99457.77
2022-08-29T10:48:53.595Z,99454.61
2022-08-29T10:49:56.520Z,99449.06
2022-08-29T10:50:59.536Z,99445.50
2022-08-29T10:52:02.060Z,99455.23
2022-08-29T10:53:04.608Z,99449.36
2022-08-29T10:54:07.779Z,99447.97
2022-08-29T10:55:10.315Z,99449.88
2022-08-29T10:56:14.120Z,99453.41
2022-08-29T10:57:16.779Z,99451.04
2022-08-29T10:58:19.451Z,99450.66
2022-08-29T10:59:22.016Z,99458.30
2022-08-29T11:00:26.017Z,99455.47
2022-08-29T11:01:29.050Z,99453.97
2022-08-29T11:02:32.173Z,99450.42
2022-08-29T11:03:35.012Z,99449.31
2022-08-29T11:04:37.925Z,99445.94
2022-08-29T11:05:40.591Z,99452.52
2022-08-29T11:06:43.635Z,99450.04
2022-08-29T11:07:46.198Z,99451.56
2022-08-29T11:08:48.803Z,99451.41
2022-08-29T11:09:51.591Z,99452.81
2022-08-29T11:10:54.551Z,99448.30
2022-08-29T11:11:57.226Z,99443.95
2022-08-29T11:12:59.894Z,99441.33
2022-08-29T11:14:05.852Z,99456.67
2022-08-29T11:15:06.979Z,99456.04
2022-08-29T11:16:10.759Z,99454.41
2022-08-29T11:17:13.703Z,99442.44
2022-08-29T11:18:16.619Z,99453.41
2022-08-29T11:19:22.661Z,99452.00
2022-08-29T11:20:25.542Z,99450.73
2022-08-29T11:21:28.311Z,99454.41
2022-08-29T11:22:30.879Z,99455.74
2022-08-29T11:23:33.751Z,99451.67
2022-08-29T11:24:37.988Z,99450.37
2022-08-29T11:25:40.850Z,99446.86
2022-08-29T11:26:43.500Z,99452.23
2022-08-29T11:27:46.198Z,99443.84
2022-08-29T11:28:48.840Z,99444.56
2022-08-29T11:29:51.404Z,99439.80
2022-08-29T11:30:54.450Z,99443.63
2022-08-29T11:31:57.200Z,99443.83
2022-08-29T11:33:00.134Z,99446.77
2022-08-29T11:34:02.767Z,99443.03
2022-08-29T11:35:05.370Z,99445.17
2022-08-29T11:36:08.754Z,99437.36
2022-08-29T11:37:11.419Z,99442.97
2022-08-29T11:38:14.006Z,99441.23
2022-08-29T11:39:16.529Z,99441.01
2022-08-29T11:40:19.680Z,99436.97
2022-08-29T11:41:30.069Z,99452.39
2022-08-29T11:43:31.437Z,99441.20
2022-08-29T11:44:34.102Z,99446.62
2022-08-29T11:45:37.434Z,99446.06
2022-08-29T11:46:40.508Z,99438.27
2022-08-29T11:47:43.338Z,99439.70
2022-08-29T11:48:45.909Z,99443.26
2022-08-29T11:49:48.443Z,99440.12
2022-08-29T11:50:52.002Z,99440.84
2022-08-29T11:51:54.935Z,99440.23
2022-08-29T11:52:57.460Z,99443.36
2022-08-29T11:54:00.070Z,99437.78
2022-08-29T11:55:03.863Z,99448.22
2022-08-29T11:56:06.843Z,99440.39
2022-08-29T11:57:09.520Z,99441.53
2022-08-29T11:58:12.590Z,99437.34
2022-08-29T11:59:15.260Z,99443.88
2022-08-29T12:00:19.477Z,99437.03
2022-08-29T12:01:22.221Z,99437.10
2022-08-29T12:02:25.333Z,99437.47
2022-08-29T12:03:29.061Z,99435.36
2022-08-29T12:04:32.228Z,99427.91
2022-08-29T12:05:35.372Z,99436.95
2022-08-29T12:06:38.159Z,99433.55
2022-08-29T12:07:40.813Z,99440.95
2022-08-29T12:08:43.485Z,99436.14
2022-08-29T12:09:46.157Z,99433.98
2022-08-29T12:10:49.165Z,99438.83
2022-08-29T12:11:51.795Z,99435.02
2022-08-29T12:12:54.377Z,99439.21
2022-08-29T12:13:56.935Z,99436.47
2022-08-29T12:14:59.499Z,99432.91
2022-08-29T12:16:02.232Z,99433.73
2022-08-29T12:17:04.852Z,99438.88
2022-08-29T12:18:07.503Z,99434.84
2022-08-29T12:19:10.176Z,99437.66
2022-08-29T12:20:13.769Z,99438.99
2022-08-29T12:21:16.843Z,99432.36